createdAt,value
2023-03-25T00:01:09.242Z,2.67
2023-03-25T00:03:42.001Z,1.95
2023-03-25T00:06:12.298Z,3.00
2023-03-25T00:08:39.167Z,2.58
2023-03-25T00:11:06.995Z,2.17
2023-03-25T00:13:34.259Z,2.20
2023-03-25T00:16:02.398Z,2.22
2023-03-25T00:18:33.844Z,1.92
2023-03-25T00:21:02.459Z,2.00
2023-03-25T00:23:30.653Z,1.98
2023-03-25T00:26:00.388Z,2.47
2023-03-25T00:28:30.862Z,3.03
2023-03-25T00:31:02.526Z,2.25
2023-03-25T00:33:29.912Z,2.05
2023-03-25T00:35:59.535Z,1.88
2023-03-25T00:38:34.262Z,2.60
2023-03-25T00:41:23.050Z,2.28
2023-03-25T00:43:51.402Z,2.15
2023-03-25T00:46:18.305Z,1.95
2023-03-25T00:48:44.999Z,2.08
2023-03-25T00:51:14.426Z,2.38
2023-03-25T00:53:41.253Z,2.30
2023-03-25T00:56:08.053Z,1.95
2023-03-25T00:58:34.617Z,1.75
2023-03-25T01:01:01.248Z,2.28
2023-03-25T01:03:30.863Z,1.67
2023-03-25T01:05:58.041Z,2.47
2023-03-25T01:08:25.333Z,2.15
2023-03-25T01:10:54.071Z,1.80
2023-03-25T01:13:21.961Z,1.95
2023-03-25T01:15:49.505Z,1.70
2023-03-25T01:18:16.822Z,1.67
2023-03-25T01:20:43.803Z,1.70
2023-03-25T01:23:10.679Z,1.48
2023-03-25T01:25:37.748Z,1.70
2023-03-25T01:28:04.921Z,1.73
2023-03-25T01:30:31.800Z,1.70
2023-03-25T01:32:58.380Z,1.60
2023-03-25T01:35:25.119Z,1.60
2023-03-25T01:37:54.500Z,1.85
2023-03-25T01:40:23.845Z,2.03
2023-03-25T01:42:50.987Z,1.83
2023-03-25T01:45:22.414Z,2.63
2023-03-25T01:47:54.568Z,1.58
2023-03-25T01:50:21.653Z,1.40
2023-03-25T01:52:52.111Z,1.27
2023-03-25T01:55:20.826Z,1.48
2023-03-25T01:57:48.397Z,1.85
2023-03-25T02:00:16.215Z,1.60
2023-03-25T02:02:45.774Z,1.50
2023-03-25T02:05:52.230Z,1.50
2023-03-25T02:08:20.894Z,1.50
2023-03-25T02:10:47.867Z,1.20
2023-03-25T02:13:15.799Z,1.30
2023-03-25T02:16:11.645Z,0.90
2023-03-25T02:18:56.875Z,1.40
2023-03-25T02:21:46.290Z,1.17
2023-03-25T02:24:35.341Z,1.42
2023-03-25T02:27:27.417Z,1.33
2023-03-25T02:30:23.407Z,0.95
2023-03-25T02:33:27.369Z,1.52
2023-03-25T02:36:15.324Z,1.55
2023-03-25T02:39:03.525Z,1.48
2023-03-25T02:41:36.148Z,2.15
2023-03-25T02:44:14.991Z,1.38
2023-03-25T02:46:48.683Z,1.50
2023-03-25T02:49:41.555Z,1.30
2023-03-25T02:52:20.892Z,1.60
2023-03-25T02:54:51.259Z,1.92
2023-03-25T02:57:23.090Z,1.70
2023-03-25T02:59:54.666Z,1.15
2023-03-25T03:02:25.695Z,1.48
2023-03-25T03:04:55.055Z,1.65
2023-03-25T03:07:26.700Z,1.40
2023-03-25T03:10:02.867Z,1.40
2023-03-25T03:12:40.773Z,1.20
2023-03-25T03:15:13.358Z,1.60
2023-03-25T03:17:50.369Z,1.63
2023-03-25T03:21:06.933Z,2.15
2023-03-25T03:24:02.497Z,2.95
2023-03-25T03:26:43.480Z,1.35
2023-03-25T03:29:27.967Z,1.42
2023-03-25T03:32:26.376Z,1.58
2023-03-25T03:34:57.158Z,2.05
2023-03-25T03:37:31.846Z,2.00
2023-03-25T03:39:58.680Z,1.42
2023-03-25T03:42:51.581Z,1.42
2023-03-25T03:45:34.443Z,1.15
2023-03-25T03:48:07.443Z,1.73
2023-03-25T03:50:44.255Z,1.85
2023-03-25T03:53:10.793Z,1.70
2023-03-25T03:55:51.499Z,1.38
2023-03-25T03:58:29.999Z,1.55
2023-03-25T04:01:28.172Z,1.75
2023-03-25T04:04:03.984Z,1.63
2023-03-25T04:06:38.760Z,1.20
2023-03-25T04:09:34.661Z,1.40
2023-03-25T04:12:11.484Z,1.67
2023-03-25T04:14:39.022Z,1.98
2023-03-25T04:17:06.566Z,2.00
2023-03-25T04:19:34.163Z,1.90
2023-03-25T04:22:02.289Z,1.52
2023-03-25T04:24:32.425Z,1.50
2023-03-25T04:27:03.550Z,1.55
2023-03-25T04:29:31.784Z,1.48
2023-03-25T04:31:59.443Z,1.40
2023-03-25T04:34:27.185Z,1.45
2023-03-25T04:36:57.242Z,2.13
2023-03-25T04:39:25.713Z,1.88
2023-03-25T04:42:03.719Z,1.75
2023-03-25T04:44:33.830Z,1.38
2023-03-25T04:47:02.366Z,1.83
2023-03-25T04:49:29.824Z,1.50
2023-03-25T04:51:58.008Z,1.65
2023-03-25T04:54:25.130Z,1.90
2023-03-25T04:56:52.436Z,1.85
2023-03-25T04:59:21.260Z,1.20
2023-03-25T05:01:48.631Z,1.80
2023-03-25T05:04:17.603Z,1.77
2023-03-25T05:06:47.441Z,1.83
2023-03-25T05:09:17.160Z,1.25
2023-03-25T05:11:43.835Z,1.35
2023-03-25T05:14:12.042Z,1.75
2023-03-25T05:16:39.127Z,1.35
2023-03-25T05:19:06.988Z,1.33
2023-03-25T05:21:38.501Z,1.60
2023-03-25T05:24:08.328Z,1.67
2023-03-25T05:26:35.414Z,1.20
2023-03-25T05:29:10.788Z,1.20
2023-03-25T05:31:37.413Z,1.80
2023-03-25T05:34:06.729Z,1.33
2023-03-25T05:36:34.145Z,1.83
2023-03-25T05:39:01.525Z,1.25
2023-03-25T05:41:38.728Z,1.33
2023-03-25T05:44:07.727Z,1.25
2023-03-25T05:46:34.937Z,1.50
2023-03-25T05:49:02.051Z,1.30
2023-03-25T05:51:34.897Z,1.38
2023-03-25T05:54:02.035Z,1.20
2023-03-25T05:56:29.573Z,1.38
2023-03-25T05:58:57.534Z,1.13
2023-03-25T06:01:33.218Z,2.90
2023-03-25T06:04:02.599Z,1.20
2023-03-25T06:06:32.397Z,1.27
2023-03-25T06:08:59.383Z,1.00
2023-03-25T06:11:25.991Z,1.27
2023-03-25T06:13:52.674Z,1.52
2023-03-25T06:16:21.940Z,1.50
2023-03-25T06:18:51.218Z,0.95
2023-03-25T06:21:19.556Z,1.23
2023-03-25T06:23:48.190Z,1.42
2023-03-25T06:26:18.454Z,2.17
2023-03-25T06:28:46.110Z,1.13
2023-03-25T06:31:17.526Z,1.30
2023-03-25T06:33:45.325Z,1.20
2023-03-25T06:36:15.397Z,1.13
2023-03-25T06:38:42.204Z,1.10
2023-03-25T06:41:08.930Z,1.33
2023-03-25T06:43:35.869Z,1.23
2023-03-25T06:46:03.019Z,1.90
2023-03-25T06:48:29.852Z,1.63
2023-03-25T06:50:57.280Z,1.13
2023-03-25T06:53:23.904Z,1.75
2023-03-25T06:55:51.007Z,1.05
2023-03-25T06:58:17.750Z,1.33
2023-03-25T07:00:45.881Z,1.38
2023-03-25T07:03:12.418Z,1.27
2023-03-25T07:05:41.508Z,1.17
2023-03-25T07:08:08.882Z,1.55
2023-03-25T07:10:35.501Z,1.40
2023-03-25T07:13:02.040Z,1.25
2023-03-25T07:15:28.704Z,2.05
2023-03-25T07:17:55.292Z,1.10
2023-03-25T07:20:22.414Z,1.25
2023-03-25T07:22:49.220Z,1.20
2023-03-25T07:25:15.856Z,1.02
2023-03-25T07:27:42.356Z,1.20
2023-03-25T07:30:09.805Z,1.00
2023-03-25T07:32:36.457Z,0.98
2023-03-25T07:35:03.806Z,1.40
2023-03-25T07:37:30.575Z,1.10
2023-03-25T07:39:57.116Z,1.67
2023-03-25T07:42:23.616Z,1.13
2023-03-25T07:44:50.507Z,1.20
2023-03-25T07:47:17.014Z,1.20
2023-03-25T07:49:44.240Z,1.70
2023-03-25T07:52:11.276Z,1.20
2023-03-25T07:54:38.379Z,1.00
2023-03-25T07:57:05.128Z,1.25
2023-03-25T07:59:31.684Z,1.75
2023-03-25T08:01:58.233Z,1.25
2023-03-25T08:04:24.804Z,1.20
2023-03-25T08:06:51.377Z,1.60
2023-03-25T08:09:17.929Z,1.42
2023-03-25T08:11:44.468Z,1.25
2023-03-25T08:14:11.356Z,1.40
2023-03-25T08:16:38.000Z,1.25
2023-03-25T08:19:04.560Z,1.70
2023-03-25T08:21:31.329Z,1.00
2023-03-25T08:24:04.824Z,1.15
2023-03-25T08:26:33.766Z,0.93
2023-03-25T08:29:02.680Z,0.90
2023-03-25T08:31:32.111Z,0.88
2023-03-25T08:33:59.440Z,0.85
2023-03-25T08:36:26.422Z,1.60
2023-03-25T08:38:53.268Z,0.80
2023-03-25T08:41:20.149Z,1.10
2023-03-25T08:43:47.210Z,1.05
2023-03-25T08:46:14.394Z,1.13
2023-03-25T08:48:41.120Z,1.08
2023-03-25T08:51:08.018Z,1.20
2023-03-25T08:53:34.644Z,1.77
2023-03-25T08:56:01.398Z,0.90
2023-03-25T08:58:27.938Z,0.85
2023-03-25T09:00:55.845Z,1.52
2023-03-25T09:03:24.180Z,0.88
2023-03-25T09:05:51.274Z,1.30
2023-03-25T09:08:18.015Z,0.82
2023-03-25T09:10:44.822Z,1.40
2023-03-25T09:13:11.641Z,0.90
2023-03-25T09:15:38.337Z,0.82
2023-03-25T09:18:05.927Z,1.48
2023-03-25T09:20:33.646Z,1.85
2023-03-25T09:23:00.242Z,1.60
2023-03-25T09:25:26.888Z,2.90
2023-03-25T09:27:53.426Z,1.73
2023-03-25T09:30:19.957Z,1.38
2023-03-25T09:32:47.221Z,1.98
2023-03-25T09:35:13.782Z,1.60
2023-03-25T09:37:40.342Z,2.15
2023-03-25T09:40:08.172Z,1.48
2023-03-25T09:43:03.289Z,1.85
2023-03-25T09:48:29.822Z,1.75
2023-03-25T09:51:03.695Z,1.15
2023-03-25T09:53:39.951Z,1.70
2023-03-25T09:56:21.523Z,1.77
2023-03-25T09:58:51.536Z,1.77
2023-03-25T10:01:37.354Z,2.08
2023-03-25T10:04:09.639Z,1.73
2023-03-25T10:06:49.869Z,2.22
2023-03-25T10:09:16.407Z,1.77
2023-03-25T10:11:42.896Z,2.05
2023-03-25T10:14:26.345Z,1.27
2023-03-25T10:17:23.342Z,1.27
2023-03-25T10:20:23.818Z,1.58
2023-03-25T10:23:18.853Z,1.65
2023-03-25T10:25:50.374Z,1.08
2023-03-25T10:28:23.909Z,1.25
2023-03-25T10:30:53.137Z,1.38
2023-03-25T10:33:31.915Z,1.73
2023-03-25T10:36:02.012Z,1.50
2023-03-25T10:38:30.324Z,1.70
2023-03-25T10:41:35.597Z,1.33
2023-03-25T10:44:05.006Z,1.40
2023-03-25T10:46:37.660Z,1.65
2023-03-25T10:49:04.229Z,2.42
2023-03-25T10:51:34.052Z,1.45
2023-03-25T10:54:01.902Z,1.55
2023-03-25T10:56:36.915Z,1.15
2023-03-25T10:59:13.108Z,1.77
2023-03-25T11:01:41.214Z,1.83
2023-03-25T11:04:11.925Z,1.20
2023-03-25T11:06:40.935Z,2.13
2023-03-25T11:09:25.390Z,1.60
2023-03-25T11:11:53.441Z,2.03
2023-03-25T11:14:25.105Z,1.45
2023-03-25T11:16:57.870Z,1.63
2023-03-25T11:19:29.272Z,1.50
2023-03-25T11:22:00.917Z,2.63
2023-03-25T11:24:32.421Z,1.30
2023-03-25T11:27:00.111Z,1.10
2023-03-25T11:29:28.329Z,1.35
2023-03-25T11:32:06.014Z,1.75
2023-03-25T11:34:32.793Z,1.52
2023-03-25T11:36:59.290Z,1.48
2023-03-25T11:39:40.824Z,1.02
2023-03-25T11:42:17.661Z,1.50
2023-03-25T11:44:52.268Z,2.30
2023-03-25T11:47:26.034Z,1.27
2023-03-25T11:49:54.485Z,1.80
2023-03-25T11:52:27.768Z,1.98
2023-03-25T11:54:56.300Z,1.52
2023-03-25T11:57:29.564Z,1.40
2023-03-25T12:02:40.616Z,1.35
2023-03-25T12:05:12.848Z,1.83
2023-03-25T12:07:51.363Z,1.10
2023-03-25T12:10:20.444Z,1.60
2023-03-25T12:13:35.171Z,1.73
2023-03-25T12:16:20.148Z,1.30
2023-03-25T12:19:09.947Z,1.27
2023-03-25T12:22:01.435Z,1.85
2023-03-25T12:24:43.260Z,1.30
2023-03-25T12:27:34.704Z,1.30
2023-03-25T12:30:38.927Z,1.45
2023-03-25T12:33:24.188Z,2.00
2023-03-25T12:36:09.317Z,1.45
2023-03-25T12:39:07.048Z,2.30
2023-03-25T12:41:37.570Z,1.55
2023-03-25T12:44:09.536Z,1.20
2023-03-25T12:46:42.952Z,1.98
2023-03-25T12:49:18.517Z,1.93
2023-03-25T12:51:57.586Z,1.40
2023-03-25T12:54:51.402Z,1.92
2023-03-25T12:57:46.100Z,2.00
2023-03-25T13:00:29.384Z,1.25
2023-03-25T13:03:28.020Z,1.45
2023-03-25T13:06:04.296Z,1.38
2023-03-25T13:09:01.177Z,1.58
2023-03-25T13:11:41.306Z,1.45
2023-03-25T13:14:28.742Z,1.65
2023-03-25T13:17:00.247Z,1.80
2023-03-25T13:19:29.277Z,1.35
2023-03-25T13:22:00.450Z,2.22
2023-03-25T13:24:44.465Z,1.40
2023-03-25T13:27:13.834Z,1.33
2023-03-25T13:30:01.911Z,1.15
2023-03-25T13:32:48.150Z,1.73
2023-03-25T13:35:27.212Z,1.40
2023-03-25T13:37:59.973Z,1.45
2023-03-25T13:40:32.468Z,1.88
2023-03-25T13:43:32.960Z,1.50
2023-03-25T13:46:08.957Z,1.67
2023-03-25T13:48:48.154Z,1.85
2023-03-25T13:51:14.725Z,2.17
2023-03-25T13:53:59.849Z,1.90
2023-03-25T13:56:42.361Z,2.10
2023-03-25T13:59:42.549Z,1.45
2023-03-25T14:02:34.836Z,1.70
2023-03-25T14:05:20.265Z,2.03
2023-03-25T14:08:16.115Z,1.52
2023-03-25T14:10:48.105Z,1.63
2023-03-25T14:13:21.852Z,1.73
2023-03-25T14:15:59.399Z,1.23
2023-03-25T14:18:26.964Z,1.70
2023-03-25T14:20:54.845Z,2.25
2023-03-25T14:23:23.659Z,1.90
2023-03-25T14:25:57.600Z,1.10
2023-03-25T14:28:43.852Z,1.35
2023-03-25T14:31:25.911Z,1.20
2023-03-25T14:34:04.755Z,1.05
2023-03-25T14:36:55.625Z,1.20
2023-03-25T14:39:28.352Z,1.63
2023-03-25T14:41:56.433Z,1.70
2023-03-25T14:44:27.912Z,1.65
2023-03-25T14:47:20.990Z,1.90
2023-03-25T14:50:05.281Z,1.50
2023-03-25T14:52:45.323Z,1.20
2023-03-25T14:55:28.348Z,1.58
2023-03-25T14:58:02.511Z,1.73
2023-03-25T15:00:34.548Z,1.13
2023-03-25T15:03:08.829Z,0.77
2023-03-25T15:08:06.892Z,1.65
2023-03-25T15:10:42.368Z,1.15
2023-03-25T15:13:26.004Z,1.63
2023-03-25T15:16:17.366Z,1.17
2023-03-25T15:18:43.967Z,1.10
2023-03-25T15:21:10.807Z,1.63
2023-03-25T15:24:07.067Z,1.45
2023-03-25T15:26:39.266Z,1.27
2023-03-25T15:29:36.908Z,1.67
2023-03-25T15:32:38.586Z,1.13
2023-03-25T15:35:34.343Z,1.33
2023-03-25T15:38:19.201Z,1.73
2023-03-25T15:41:27.623Z,1.27
2023-03-25T15:44:00.452Z,1.10
2023-03-25T15:46:46.577Z,0.95
2023-03-25T15:49:35.897Z,1.23
2023-03-25T15:52:25.614Z,1.50
2023-03-25T15:54:56.402Z,1.40
2023-03-25T15:57:40.838Z,1.33
2023-03-25T16:00:20.748Z,1.35
2023-03-25T16:02:53.351Z,1.20
2023-03-25T16:05:21.689Z,1.20
2023-03-25T16:07:49.188Z,1.17
2023-03-25T16:10:18.633Z,1.27
2023-03-25T16:12:50.569Z,1.73
2023-03-25T16:15:24.521Z,1.73
2023-03-25T16:17:51.837Z,1.42
2023-03-25T16:20:23.660Z,1.63
2023-03-25T16:22:53.359Z,1.35
2023-03-25T16:25:27.072Z,1.90
2023-03-25T16:27:57.700Z,1.33
2023-03-25T16:30:43.194Z,1.25
2023-03-25T16:33:12.880Z,1.20
2023-03-25T16:35:42.756Z,1.65
2023-03-25T16:38:15.543Z,1.25
2023-03-25T16:40:47.016Z,1.85
2023-03-25T16:43:20.916Z,1.50
2023-03-25T16:45:49.136Z,1.75
2023-03-25T16:48:28.122Z,1.40
2023-03-25T16:50:59.272Z,1.10
2023-03-25T16:53:26.566Z,1.83
2023-03-25T16:56:17.526Z,1.38
2023-03-25T16:59:03.816Z,1.15
2023-03-25T17:01:39.570Z,2.17
2023-03-25T17:04:42.120Z,1.35
2023-03-25T17:07:15.556Z,1.30
2023-03-25T17:09:44.165Z,1.23
2023-03-25T17:12:17.206Z,1.77
2023-03-25T17:14:46.557Z,0.80
2023-03-25T17:17:34.713Z,1.58
2023-03-25T17:20:09.029Z,2.00
2023-03-25T17:22:40.952Z,1.35
2023-03-25T17:25:28.130Z,1.15
2023-03-25T17:28:05.380Z,2.58
2023-03-25T17:30:42.957Z,3.53
2023-03-25T17:33:30.216Z,1.95
2023-03-25T17:35:57.164Z,1.23
2023-03-25T17:38:34.860Z,1.67
2023-03-25T17:41:07.480Z,1.58
2023-03-25T17:43:42.416Z,1.20
2023-03-25T17:46:09.753Z,1.38
2023-03-25T17:48:37.256Z,2.35
2023-03-25T17:51:04.393Z,1.73
2023-03-25T17:53:31.033Z,1.02
2023-03-25T17:55:59.378Z,2.20
2023-03-25T17:58:25.949Z,3.25
2023-03-25T18:00:53.137Z,1.13
2023-03-25T18:03:22.928Z,1.40
2023-03-25T18:05:53.629Z,1.45
2023-03-25T18:08:22.873Z,1.50
2023-03-25T18:10:51.278Z,1.40
2023-03-25T18:13:18.263Z,1.80
2023-03-25T18:15:44.820Z,1.73
2023-03-25T18:18:18.328Z,1.73
2023-03-25T18:20:46.169Z,1.80
2023-03-25T18:23:14.133Z,3.15
2023-03-25T18:25:41.289Z,2.10
2023-03-25T18:28:09.844Z,2.25
2023-03-25T18:30:54.919Z,2.30
2023-03-25T18:33:24.233Z,2.30
2023-03-25T18:35:52.698Z,1.70
2023-03-25T18:38:22.403Z,1.90
2023-03-25T18:40:49.463Z,1.70
2023-03-25T18:43:17.282Z,1.92
2023-03-25T18:45:45.531Z,1.75
2023-03-25T18:48:20.806Z,2.10
2023-03-25T18:50:55.834Z,2.80
2023-03-25T18:53:25.228Z,2.30
2023-03-25T18:55:53.229Z,1.85
2023-03-25T18:58:22.656Z,2.70
2023-03-25T19:00:51.914Z,2.55
2023-03-25T19:03:20.178Z,3.03
2023-03-25T19:05:47.675Z,2.25
2023-03-25T19:08:19.713Z,2.40
2023-03-25T19:10:47.335Z,2.35
2023-03-25T19:13:14.563Z,2.15
2023-03-25T19:15:43.028Z,2.65
2023-03-25T19:18:17.573Z,2.13
2023-03-25T19:20:46.428Z,2.75
2023-03-25T19:23:15.820Z,2.08
2023-03-25T19:25:45.086Z,2.13
2023-03-25T19:28:13.765Z,2.10
2023-03-25T19:30:40.874Z,2.08
2023-03-25T19:33:07.656Z,2.03
2023-03-25T19:35:34.300Z,2.35
2023-03-25T19:38:03.626Z,2.25
2023-03-25T19:40:32.870Z,4.57
2023-03-25T19:43:01.783Z,3.80
2023-03-25T19:45:32.354Z,4.97
2023-03-25T19:47:59.088Z,6.75
2023-03-25T19:50:29.352Z,10.32
2023-03-25T19:52:56.714Z,13.68
2023-03-25T19:55:23.976Z,12.50
2023-03-25T19:57:51.095Z,10.07
2023-03-25T20:00:21.362Z,6.90
2023-03-25T20:02:51.414Z,8.40
2023-03-25T20:05:19.404Z,6.50
2023-03-25T20:07:46.789Z,4.45
2023-03-25T20:10:20.074Z,5.55
2023-03-25T20:12:48.356Z,6.00
2023-03-25T20:15:16.716Z,6.25
2023-03-25T20:17:44.068Z,6.07
2023-03-25T20:20:12.848Z,6.47
2023-03-25T20:22:40.769Z,5.55
2023-03-25T20:25:09.220Z,4.50
2023-03-25T20:27:36.160Z,6.30
2023-03-25T20:30:05.750Z,5.78
2023-03-25T20:32:40.739Z,5.60
2023-03-25T20:35:10.357Z,5.35
2023-03-25T20:37:38.692Z,4.88
2023-03-25T20:40:11.135Z,4.45
2023-03-25T20:42:42.616Z,4.93
2023-03-25T20:45:12.047Z,4.65
2023-03-25T20:47:38.683Z,5.18
2023-03-25T20:50:06.986Z,5.25
2023-03-25T20:52:34.335Z,4.28
2023-03-25T20:55:01.029Z,4.70
2023-03-25T20:57:27.831Z,4.90
2023-03-25T20:59:54.435Z,6.10
2023-03-25T21:02:21.473Z,4.65
2023-03-25T21:04:48.817Z,5.40
2023-03-25T21:07:19.438Z,4.63
2023-03-25T21:09:48.148Z,4.70
2023-03-25T21:12:14.870Z,4.53
2023-03-25T21:14:41.974Z,5.03
2023-03-25T21:17:09.673Z,3.88
2023-03-25T21:19:36.251Z,4.70
2023-03-25T21:22:03.048Z,4.22
2023-03-25T21:24:31.351Z,4.95
2023-03-25T21:26:57.951Z,6.75
2023-03-25T21:29:24.581Z,4.03
2023-03-25T21:31:51.400Z,4.90
2023-03-25T21:34:18.048Z,4.30
2023-03-25T21:36:44.660Z,4.97
2023-03-25T21:39:11.373Z,4.85
2023-03-25T21:41:38.419Z,6.05
2023-03-25T21:44:06.481Z,5.70
2023-03-25T21:46:33.702Z,3.95
2023-03-25T21:49:02.409Z,4.18
2023-03-25T21:51:35.995Z,3.58
2023-03-25T21:54:02.636Z,3.55
2023-03-25T21:56:31.391Z,5.32
2023-03-25T21:58:58.345Z,3.35
2023-03-25T22:01:29.584Z,3.38
2023-03-25T22:03:57.980Z,3.17
2023-03-25T22:06:30.815Z,3.70
2023-03-25T22:08:57.928Z,2.70
2023-03-25T22:11:29.615Z,4.60
2023-03-25T22:13:56.956Z,3.28
2023-03-25T22:16:24.275Z,5.05
2023-03-25T22:18:52.069Z,4.18
2023-03-25T22:21:24.829Z,3.35
2023-03-25T22:23:54.805Z,3.38
2023-03-25T22:26:23.722Z,3.58
2023-03-25T22:28:55.152Z,3.35
2023-03-25T22:31:30.805Z,3.80
2023-03-25T22:34:11.002Z,2.85
2023-03-25T22:36:40.351Z,3.45
2023-03-25T22:39:07.308Z,3.75
2023-03-25T22:41:34.072Z,2.67
2023-03-25T22:44:00.650Z,3.63
2023-03-25T22:46:27.388Z,3.03
2023-03-25T22:48:54.128Z,2.10
2023-03-25T22:51:21.446Z,2.22
2023-03-25T22:53:48.330Z,2.50
2023-03-25T22:56:15.374Z,2.72
2023-03-25T22:58:42.006Z,2.65
2023-03-25T23:01:38.762Z,2.53
2023-03-25T23:04:05.645Z,2.50
2023-03-25T23:06:33.384Z,2.47
2023-03-25T23:09:00.133Z,2.03
2023-03-25T23:11:29.230Z,2.25
2023-03-25T23:13:59.444Z,3.20
2023-03-25T23:16:30.786Z,3.17
2023-03-25T23:18:58.237Z,2.90
2023-03-25T23:21:28.175Z,2.33
2023-03-25T23:23:58.098Z,2.03
2023-03-25T23:26:28.014Z,2.25
2023-03-25T23:29:00.552Z,2.03
2023-03-25T23:31:33.841Z,2.70
2023-03-25T23:34:03.516Z,2.40
2023-03-25T23:36:31.241Z,2.00
2023-03-25T23:38:59.040Z,2.15
2023-03-25T23:41:26.077Z,1.92
2023-03-25T23:43:54.375Z,2.28
2023-03-25T23:46:22.339Z,2.53
2023-03-25T23:48:49.388Z,1.90
2023-03-25T23:51:20.457Z,2.30
2023-03-25T23:53:49.366Z,2.53
2023-03-25T23:56:17.705Z,2.13
2023-03-25T23:58:44.807Z,4.20
